sensor_id;sensor_type;location;lat;lon;timestamp;temperature;humidity
5675;DHT22;2860;54.284;10.158;2022-12-18T00:01:33;-7.50;99.90
5675;DHT22;2860;54.284;10.158;2022-12-18T00:04:01;-7.60;99.90
5675;DHT22;2860;54.284;10.158;2022-12-18T00:06:28;-7.60;99.90
5675;DHT22;2860;54.284;10.158;2022-12-18T00:08:55;-7.60;99.90
5675;DHT22;2860;54.284;10.158;2022-12-18T00:11:23;-7.60;99.90
5675;DHT22;2860;54.284;10.158;2022-12-18T00:13:49;-7.60;99.90
5675;DHT22;2860;54.284;10.158;2022-12-18T00:16:17;-7.60;99.90
5675;DHT22;2860;54.284;10.158;2022-12-18T00:18:49;-7.60;99.90
5675;DHT22;2860;54.284;10.158;2022-12-18T00:21:15;-7.70;99.90
5675;DHT22;2860;54.284;10.158;2022-12-18T00:23:42;-7.70;99.90
5675;DHT22;2860;54.284;10.158;2022-12-18T00:26:24;-7.70;99.90
5675;DHT22;2860;54.284;10.158;2022-12-18T00:28:50;-7.80;99.90
5675;DHT22;2860;54.284;10.158;2022-12-18T00:31:19;-7.80;99.90
5675;DHT22;2860;54.284;10.158;2022-12-18T00:33:46;-7.80;99.90
5675;DHT22;2860;54.284;10.158;2022-12-18T00:36:14;-7.90;99.90
5675;DHT22;2860;54.284;10.158;2022-12-18T00:38:40;-7.90;99.90
5675;DHT22;2860;54.284;10.158;2022-12-18T00:41:07;-7.90;99.90
5675;DHT22;2860;54.284;10.158;2022-12-18T00:43:32;-7.90;99.90
5675;DHT22;2860;54.284;10.158;2022-12-18T00:46:01;-7.80;99.90
5675;DHT22;2860;54.284;10.158;2022-12-18T00:48:26;-7.70;99.90
5675;DHT22;2860;54.284;10.158;2022-12-18T00:50:52;-7.60;99.90
5675;DHT22;2860;54.284;10.158;2022-12-18T00:53:18;-7.60;99.90
5675;DHT22;2860;54.284;10.158;2022-12-18T00:55:44;-7.70;99.90
5675;DHT22;2860;54.284;10.158;2022-12-18T00:58:11;-7.70;99.90
5675;DHT22;2860;54.284;10.158;2022-12-18T01:00:37;-7.70;99.90
5675;DHT22;2860;54.284;10.158;2022-12-18T01:03:03;-7.70;99.90
5675;DHT22;2860;54.284;10.158;2022-12-18T01:05:29;-7.70;99.90
5675;DHT22;2860;54.284;10.158;2022-12-18T01:07:56;-7.80;99.90
5675;DHT22;2860;54.284;10.158;2022-12-18T01:10:22;-7.80;99.90
5675;DHT22;2860;54.284;10.158;2022-12-18T01:12:47;-7.90;99.90
5675;DHT22;2860;54.284;10.158;2022-12-18T01:15:14;-7.90;99.90
5675;DHT22;2860;54.284;10.158;2022-12-18T01:17:40;-7.90;99.90
5675;DHT22;2860;54.284;10.158;2022-12-18T01:20:06;-8.00;99.90
5675;DHT22;2860;54.284;10.158;2022-12-18T01:22:32;-7.90;99.90
5675;DHT22;2860;54.284;10.158;2022-12-18T01:25:00;-7.90;99.90
5675;DHT22;2860;54.284;10.158;2022-12-18T01:27:26;-7.90;99.90
5675;DHT22;2860;54.284;10.158;2022-12-18T01:29:51;-8.00;99.90
5675;DHT22;2860;54.284;10.158;2022-12-18T01:32:17;-8.00;99.90
5675;DHT22;2860;54.284;10.158;2022-12-18T01:34:42;-8.00;99.90
5675;DHT22;2860;54.284;10.158;2022-12-18T01:37:08;-8.10;99.90
5675;DHT22;2860;54.284;10.158;2022-12-18T01:39:34;-8.10;99.90
5675;DHT22;2860;54.284;10.158;2022-12-18T01:42:01;-8.10;99.90
5675;DHT22;2860;54.284;10.158;2022-12-18T01:48:05;-8.10;99.90
5675;DHT22;2860;54.284;10.158;2022-12-18T01:50:40;-8.10;99.90
5675;DHT22;2860;54.284;10.158;2022-12-18T01:53:11;-8.00;99.90
5675;DHT22;2860;54.284;10.158;2022-12-18T01:55:48;-8.10;99.90
5675;DHT22;2860;54.284;10.158;2022-12-18T01:58:14;-8.10;99.90
5675;DHT22;2860;54.284;10.158;2022-12-18T02:00:40;-8.10;99.90
5675;DHT22;2860;54.284;10.158;2022-12-18T02:03:06;-8.10;99.90
5675;DHT22;2860;54.284;10.158;2022-12-18T02:10:52;-8.10;99.90
5675;DHT22;2860;54.284;10.158;2022-12-18T02:13:40;-8.00;99.90
5675;DHT22;2860;54.284;10.158;2022-12-18T02:16:27;-8.00;99.90
5675;DHT22;2860;54.284;10.158;2022-12-18T02:18:59;-8.00;99.90
5675;DHT22;2860;54.284;10.158;2022-12-18T02:21:28;-8.00;99.90
5675;DHT22;2860;54.284;10.158;2022-12-18T02:26:37;-8.00;99.90
5675;DHT22;2860;54.284;10.158;2022-12-18T02:29:13;-7.90;99.90
5675;DHT22;2860;54.284;10.158;2022-12-18T02:31:45;-7.90;99.90
5675;DHT22;2860;54.284;10.158;2022-12-18T02:34:12;-7.90;99.90
5675;DHT22;2860;54.284;10.158;2022-12-18T02:36:41;-7.80;99.90
5675;DHT22;2860;54.284;10.158;2022-12-18T02:39:09;-7.70;99.90
5675;DHT22;2860;54.284;10.158;2022-12-18T02:41:36;-7.70;99.90
5675;DHT22;2860;54.284;10.158;2022-12-18T02:44:08;-7.60;99.90
5675;DHT22;2860;54.284;10.158;2022-12-18T02:46:42;-7.60;99.90
5675;DHT22;2860;54.284;10.158;2022-12-18T02:49:36;-7.60;99.90
5675;DHT22;2860;54.284;10.158;2022-12-18T02:58:26;-7.60;99.90
5675;DHT22;2860;54.284;10.158;2022-12-18T03:01:01;-7.60;99.90
5675;DHT22;2860;54.284;10.158;2022-12-18T03:03:38;-7.60;99.90
5675;DHT22;2860;54.284;10.158;2022-12-18T03:08:44;-7.60;99.90
5675;DHT22;2860;54.284;10.158;2022-12-18T03:11:13;-7.50;99.90
5675;DHT22;2860;54.284;10.158;2022-12-18T03:13:46;-7.50;99.90
5675;DHT22;2860;54.284;10.158;2022-12-18T03:16:18;-7.50;99.90
5675;DHT22;2860;54.284;10.158;2022-12-18T03:18:54;-7.50;99.90
5675;DHT22;2860;54.284;10.158;2022-12-18T03:21:25;-7.50;99.90
5675;DHT22;2860;54.284;10.158;2022-12-18T03:23:52;-7.40;99.90
5675;DHT22;2860;54.284;10.158;2022-12-18T03:26:21;-7.40;99.90
5675;DHT22;2860;54.284;10.158;2022-12-18T03:28:54;-7.40;99.90
5675;DHT22;2860;54.284;10.158;2022-12-18T03:31:23;-7.40;99.90
5675;DHT22;2860;54.284;10.158;2022-12-18T03:33:55;-7.40;99.90
5675;DHT22;2860;54.284;10.158;2022-12-18T03:36:21;-7.40;99.90
5675;DHT22;2860;54.284;10.158;2022-12-18T03:38:47;-7.40;99.90
5675;DHT22;2860;54.284;10.158;2022-12-18T03:41:32;-7.50;99.90
5675;DHT22;2860;54.284;10.158;2022-12-18T03:44:11;-7.50;99.90
5675;DHT22;2860;54.284;10.158;2022-12-18T03:46:50;-7.50;99.90
5675;DHT22;2860;54.284;10.158;2022-12-18T03:52:01;-7.60;99.90
5675;DHT22;2860;54.284;10.158;2022-12-18T03:54:29;-7.60;99.90
5675;DHT22;2860;54.284;10.158;2022-12-18T03:57:11;-7.60;99.90
5675;DHT22;2860;54.284;10.158;2022-12-18T03:59:39;-7.60;99.90
5675;DHT22;2860;54.284;10.158;2022-12-18T04:02:06;-7.70;99.90
5675;DHT22;2860;54.284;10.158;2022-12-18T04:04:34;-7.70;99.90
5675;DHT22;2860;54.284;10.158;2022-12-18T04:07:00;-7.70;99.90
5675;DHT22;2860;54.284;10.158;2022-12-18T04:09:27;-7.70;99.90
5675;DHT22;2860;54.284;10.158;2022-12-18T04:11:53;-7.70;99.90
5675;DHT22;2860;54.284;10.158;2022-12-18T04:14:19;-7.70;99.90
5675;DHT22;2860;54.284;10.158;2022-12-18T04:16:45;-7.70;99.90
5675;DHT22;2860;54.284;10.158;2022-12-18T04:19:10;-7.70;99.90
5675;DHT22;2860;54.284;10.158;2022-12-18T04:21:36;-7.70;99.90
5675;DHT22;2860;54.284;10.158;2022-12-18T04:24:01;-7.70;99.90
5675;DHT22;2860;54.284;10.158;2022-12-18T04:26:27;-7.70;99.90
5675;DHT22;2860;54.284;10.158;2022-12-18T04:28:52;-7.70;99.90
5675;DHT22;2860;54.284;10.158;2022-12-18T04:31:18;-7.70;99.90
5675;DHT22;2860;54.284;10.158;2022-12-18T04:33:43;-7.70;99.90
5675;DHT22;2860;54.284;10.158;2022-12-18T04:36:09;-7.70;99.90
5675;DHT22;2860;54.284;10.158;2022-12-18T04:38:34;-7.70;99.90
5675;DHT22;2860;54.284;10.158;2022-12-18T04:41:00;-7.80;99.90
5675;DHT22;2860;54.284;10.158;2022-12-18T04:43:25;-7.70;99.90
5675;DHT22;2860;54.284;10.158;2022-12-18T04:45:51;-7.70;99.90
5675;DHT22;2860;54.284;10.158;2022-12-18T04:48:16;-7.80;99.90
5675;DHT22;2860;54.284;10.158;2022-12-18T04:50:42;-7.80;99.90
5675;DHT22;2860;54.284;10.158;2022-12-18T04:53:07;-7.70;99.90
5675;DHT22;2860;54.284;10.158;2022-12-18T04:55:33;-7.70;99.90
5675;DHT22;2860;54.284;10.158;2022-12-18T04:57:58;-7.70;99.90
5675;DHT22;2860;54.284;10.158;2022-12-18T05:00:24;-7.70;99.90
5675;DHT22;2860;54.284;10.158;2022-12-18T05:02:49;-7.80;99.90
5675;DHT22;2860;54.284;10.158;2022-12-18T05:05:15;-7.80;99.90
5675;DHT22;2860;54.284;10.158;2022-12-18T05:07:40;-7.80;99.90
5675;DHT22;2860;54.284;10.158;2022-12-18T05:10:06;-7.80;99.90
5675;DHT22;2860;54.284;10.158;2022-12-18T05:12:32;-7.80;99.90
5675;DHT22;2860;54.284;10.158;2022-12-18T05:14:57;-7.80;99.90
5675;DHT22;2860;54.284;10.158;2022-12-18T05:17:23;-7.80;99.90
5675;DHT22;2860;54.284;10.158;2022-12-18T05:19:49;-7.80;99.90
5675;DHT22;2860;54.284;10.158;2022-12-18T05:22:14;-7.80;99.90
5675;DHT22;2860;54.284;10.158;2022-12-18T05:24:42;-7.80;99.90
5675;DHT22;2860;54.284;10.158;2022-12-18T05:27:08;-7.80;99.90
5675;DHT22;2860;54.284;10.158;2022-12-18T05:29:33;-7.80;99.90
5675;DHT22;2860;54.284;10.158;2022-12-18T05:31:59;-7.90;99.90
5675;DHT22;2860;54.284;10.158;2022-12-18T05:34:24;-7.90;99.90
5675;DHT22;2860;54.284;10.158;2022-12-18T05:36:50;-7.90;99.90
5675;DHT22;2860;54.284;10.158;2022-12-18T05:39:15;-8.00;99.90
5675;DHT22;2860;54.284;10.158;2022-12-18T05:41:41;-7.90;99.90
5675;DHT22;2860;54.284;10.158;2022-12-18T05:44:06;-7.90;99.90
5675;DHT22;2860;54.284;10.158;2022-12-18T05:46:32;-7.90;99.90
5675;DHT22;2860;54.284;10.158;2022-12-18T05:48:59;-7.90;99.90
5675;DHT22;2860;54.284;10.158;2022-12-18T05:51:25;-7.90;99.90
5675;DHT22;2860;54.284;10.158;2022-12-18T05:53:50;-8.00;99.90
5675;DHT22;2860;54.284;10.158;2022-12-18T05:56:18;-8.00;99.90
5675;DHT22;2860;54.284;10.158;2022-12-18T05:58:44;-8.00;99.90
5675;DHT22;2860;54.284;10.158;2022-12-18T06:01:16;-8.00;99.90
5675;DHT22;2860;54.284;10.158;2022-12-18T06:03:42;-8.10;99.90
5675;DHT22;2860;54.284;10.158;2022-12-18T06:06:19;-8.10;99.90
5675;DHT22;2860;54.284;10.158;2022-12-18T06:08:45;-8.10;99.90
5675;DHT22;2860;54.284;10.158;2022-12-18T06:11:11;-8.10;99.90
5675;DHT22;2860;54.284;10.158;2022-12-18T06:13:38;-8.20;99.90
5675;DHT22;2860;54.284;10.158;2022-12-18T06:16:05;-8.20;99.90
5675;DHT22;2860;54.284;10.158;2022-12-18T06:18:31;-8.20;99.90
5675;DHT22;2860;54.284;10.158;2022-12-18T06:20:58;-8.30;99.90
5675;DHT22;2860;54.284;10.158;2022-12-18T06:23:23;-8.30;99.90
5675;DHT22;2860;54.284;10.158;2022-12-18T06:25:49;-8.30;99.90
5675;DHT22;2860;54.284;10.158;2022-12-18T06:28:15;-8.40;99.90
5675;DHT22;2860;54.284;10.158;2022-12-18T06:30:43;-8.40;99.90
5675;DHT22;2860;54.284;10.158;2022-12-18T06:33:09;-8.40;99.90
5675;DHT22;2860;54.284;10.158;2022-12-18T06:35:35;-8.50;99.90
5675;DHT22;2860;54.284;10.158;2022-12-18T06:38:01;-8.50;99.90
5675;DHT22;2860;54.284;10.158;2022-12-18T06:40:27;-8.50;99.90
5675;DHT22;2860;54.284;10.158;2022-12-18T06:42:52;-8.50;99.90
5675;DHT22;2860;54.284;10.158;2022-12-18T06:45:18;-8.50;99.90
5675;DHT22;2860;54.284;10.158;2022-12-18T06:47:43;-8.50;99.90
5675;DHT22;2860;54.284;10.158;2022-12-18T06:50:09;-8.50;99.90
5675;DHT22;2860;54.284;10.158;2022-12-18T06:52:34;-8.50;99.90
5675;DHT22;2860;54.284;10.158;2022-12-18T06:55:00;-8.50;99.90
5675;DHT22;2860;54.284;10.158;2022-12-18T06:57:25;-8.50;99.90
5675;DHT22;2860;54.284;10.158;2022-12-18T06:59:51;-8.60;99.90
5675;DHT22;2860;54.284;10.158;2022-12-18T07:02:17;-8.60;99.90
5675;DHT22;2860;54.284;10.158;2022-12-18T07:04:42;-8.70;99.90
5675;DHT22;2860;54.284;10.158;2022-12-18T07:07:08;-8.70;99.90
5675;DHT22;2860;54.284;10.158;2022-12-18T07:09:33;-8.70;99.90
5675;DHT22;2860;54.284;10.158;2022-12-18T07:11:59;-8.80;99.90
5675;DHT22;2860;54.284;10.158;2022-12-18T07:14:24;-8.80;99.90
5675;DHT22;2860;54.284;10.158;2022-12-18T07:16:50;-8.80;99.90
5675;DHT22;2860;54.284;10.158;2022-12-18T07:19:15;-8.90;99.90
5675;DHT22;2860;54.284;10.158;2022-12-18T07:21:41;-8.90;99.90
5675;DHT22;2860;54.284;10.158;2022-12-18T07:24:07;-8.90;99.90
5675;DHT22;2860;54.284;10.158;2022-12-18T07:26:32;-8.90;99.90
5675;DHT22;2860;54.284;10.158;2022-12-18T07:28:58;-8.90;99.90
5675;DHT22;2860;54.284;10.158;2022-12-18T07:31:25;-8.90;99.90
5675;DHT22;2860;54.284;10.158;2022-12-18T07:33:51;-8.90;99.90
5675;DHT22;2860;54.284;10.158;2022-12-18T07:36:17;-8.90;99.90
5675;DHT22;2860;54.284;10.158;2022-12-18T07:38:46;-8.90;99.90
5675;DHT22;2860;54.284;10.158;2022-12-18T07:41:12;-9.00;99.90
5675;DHT22;2860;54.284;10.158;2022-12-18T07:43:39;-9.00;99.90
5675;DHT22;2860;54.284;10.158;2022-12-18T07:46:05;-9.00;99.90
5675;DHT22;2860;54.284;10.158;2022-12-18T07:48:31;-9.00;99.90
5675;DHT22;2860;54.284;10.158;2022-12-18T07:51:04;-9.00;99.90
5675;DHT22;2860;54.284;10.158;2022-12-18T07:53:30;-9.00;99.90
5675;DHT22;2860;54.284;10.158;2022-12-18T07:55:57;-9.00;99.90
5675;DHT22;2860;54.284;10.158;2022-12-18T07:58:22;-9.00;99.90
5675;DHT22;2860;54.284;10.158;2022-12-18T08:00:48;-9.00;99.90
5675;DHT22;2860;54.284;10.158;2022-12-18T08:03:13;-9.00;99.90
5675;DHT22;2860;54.284;10.158;2022-12-18T08:05:39;-9.00;99.90
5675;DHT22;2860;54.284;10.158;2022-12-18T08:08:05;-9.00;99.90
5675;DHT22;2860;54.284;10.158;2022-12-18T08:10:30;-9.00;99.90
5675;DHT22;2860;54.284;10.158;2022-12-18T08:12:56;-9.00;99.90
5675;DHT22;2860;54.284;10.158;2022-12-18T08:15:21;-8.90;99.90
5675;DHT22;2860;54.284;10.158;2022-12-18T08:17:47;-8.90;99.90
5675;DHT22;2860;54.284;10.158;2022-12-18T08:20:12;-8.90;99.90
5675;DHT22;2860;54.284;10.158;2022-12-18T08:22:41;-8.80;99.90
5675;DHT22;2860;54.284;10.158;2022-12-18T08:25:07;-8.80;99.90
5675;DHT22;2860;54.284;10.158;2022-12-18T08:27:32;-8.80;99.90
5675;DHT22;2860;54.284;10.158;2022-12-18T08:29:58;-8.70;99.90
5675;DHT22;2860;54.284;10.158;2022-12-18T08:32:24;-8.60;99.90
5675;DHT22;2860;54.284;10.158;2022-12-18T08:34:50;-8.50;99.90
5675;DHT22;2860;54.284;10.158;2022-12-18T08:37:15;-8.50;99.90
5675;DHT22;2860;54.284;10.158;2022-12-18T08:39:41;-8.40;99.90
5675;DHT22;2860;54.284;10.158;2022-12-18T08:42:06;-8.40;99.90
5675;DHT22;2860;54.284;10.158;2022-12-18T08:44:50;-8.40;99.90
5675;DHT22;2860;54.284;10.158;2022-12-18T08:47:15;-8.30;99.90
5675;DHT22;2860;54.284;10.158;2022-12-18T08:49:41;-8.30;99.90
5675;DHT22;2860;54.284;10.158;2022-12-18T08:52:06;-8.20;99.90
5675;DHT22;2860;54.284;10.158;2022-12-18T08:54:32;-8.20;99.90
5675;DHT22;2860;54.284;10.158;2022-12-18T08:56:57;-8.10;99.90
5675;DHT22;2860;54.284;10.158;2022-12-18T08:59:23;-8.10;99.90
5675;DHT22;2860;54.284;10.158;2022-12-18T09:01:49;-8.10;99.90
5675;DHT22;2860;54.284;10.158;2022-12-18T09:04:15;-8.10;99.90
5675;DHT22;2860;54.284;10.158;2022-12-18T09:06:41;-8.10;99.90
5675;DHT22;2860;54.284;10.158;2022-12-18T09:09:06;-8.10;99.90
5675;DHT22;2860;54.284;10.158;2022-12-18T09:11:32;-8.10;99.90
5675;DHT22;2860;54.284;10.158;2022-12-18T09:13:59;-8.00;99.90
5675;DHT22;2860;54.284;10.158;2022-12-18T09:16:26;-8.00;99.90
5675;DHT22;2860;54.284;10.158;2022-12-18T09:18:54;-8.00;99.90
5675;DHT22;2860;54.284;10.158;2022-12-18T09:21:25;-7.90;99.90
5675;DHT22;2860;54.284;10.158;2022-12-18T09:23:52;-7.90;99.90
5675;DHT22;2860;54.284;10.158;2022-12-18T09:26:18;-7.90;99.90
5675;DHT22;2860;54.284;10.158;2022-12-18T09:28:44;-7.80;99.90
5675;DHT22;2860;54.284;10.158;2022-12-18T09:31:14;-7.80;99.90
5675;DHT22;2860;54.284;10.158;2022-12-18T09:33:39;-7.80;99.90
5675;DHT22;2860;54.284;10.158;2022-12-18T09:36:07;-7.70;99.90
5675;DHT22;2860;54.284;10.158;2022-12-18T09:38:34;-7.70;99.90
5675;DHT22;2860;54.284;10.158;2022-12-18T09:41:24;-7.70;99.90
5675;DHT22;2860;54.284;10.158;2022-12-18T09:44:00;-7.70;99.90
5675;DHT22;2860;54.284;10.158;2022-12-18T09:46:30;-7.60;99.90
5675;DHT22;2860;54.284;10.158;2022-12-18T09:48:59;-7.60;99.90
5675;DHT22;2860;54.284;10.158;2022-12-18T09:51:32;-7.60;99.90
5675;DHT22;2860;54.284;10.158;2022-12-18T09:54:05;-7.60;99.90
5675;DHT22;2860;54.284;10.158;2022-12-18T09:56:36;-7.60;99.90
5675;DHT22;2860;54.284;10.158;2022-12-18T09:59:03;-7.50;99.90
5675;DHT22;2860;54.284;10.158;2022-12-18T10:01:31;-7.50;99.90
5675;DHT22;2860;54.284;10.158;2022-12-18T10:03:57;-7.50;99.90
5675;DHT22;2860;54.284;10.158;2022-12-18T10:10:10;-7.40;99.90
5675;DHT22;2860;54.284;10.158;2022-12-18T10:13:07;-7.30;99.90
5675;DHT22;2860;54.284;10.158;2022-12-18T10:15:39;-7.30;99.90
5675;DHT22;2860;54.284;10.158;2022-12-18T10:20:48;-7.10;99.90
5675;DHT22;2860;54.284;10.158;2022-12-18T10:23:33;-7.00;99.90
5675;DHT22;2860;54.284;10.158;2022-12-18T10:26:10;-6.90;99.90
5675;DHT22;2860;54.284;10.158;2022-12-18T10:28:40;-6.70;99.90
5675;DHT22;2860;54.284;10.158;2022-12-18T10:31:07;-6.60;99.90
5675;DHT22;2860;54.284;10.158;2022-12-18T10:33:35;-6.40;99.90
5675;DHT22;2860;54.284;10.158;2022-12-18T10:36:01;-6.20;99.90
5675;DHT22;2860;54.284;10.158;2022-12-18T10:38:30;-6.10;99.90
5675;DHT22;2860;54.284;10.158;2022-12-18T10:41:03;-5.90;99.90
5675;DHT22;2860;54.284;10.158;2022-12-18T10:43:32;-5.80;99.90
5675;DHT22;2860;54.284;10.158;2022-12-18T10:48:40;-5.50;99.90
5675;DHT22;2860;54.284;10.158;2022-12-18T10:51:24;-5.40;99.90
5675;DHT22;2860;54.284;10.158;2022-12-18T10:54:17;-5.30;99.90
5675;DHT22;2860;54.284;10.158;2022-12-18T10:56:44;-5.30;99.90
5675;DHT22;2860;54.284;10.158;2022-12-18T10:59:12;-5.30;99.90
5675;DHT22;2860;54.284;10.158;2022-12-18T11:01:56;-5.40;99.90
5675;DHT22;2860;54.284;10.158;2022-12-18T11:04:25;-5.30;99.90
5675;DHT22;2860;54.284;10.158;2022-12-18T11:07:04;-5.30;99.90
5675;DHT22;2860;54.284;10.158;2022-12-18T11:09:32;-5.20;99.90
5675;DHT22;2860;54.284;10.158;2022-12-18T11:12:02;-5.20;99.90
5675;DHT22;2860;54.284;10.158;2022-12-18T11:14:57;-5.10;99.90
5675;DHT22;2860;54.284;10.158;2022-12-18T11:17:35;-4.90;99.90
5675;DHT22;2860;54.284;10.158;2022-12-18T11:20:30;-4.80;99.90
5675;DHT22;2860;54.284;10.158;2022-12-18T11:23:02;-4.70;99.90
5675;DHT22;2860;54.284;10.158;2022-12-18T11:25:30;-4.70;99.90
5675;DHT22;2860;54.284;10.158;2022-12-18T11:27:59;-4.70;99.90
5675;DHT22;2860;54.284;10.158;2022-12-18T11:30:32;-4.80;99.90
5675;DHT22;2860;54.284;10.158;2022-12-18T11:33:15;-4.80;99.90
5675;DHT22;2860;54.284;10.158;2022-12-18T11:35:52;-4.90;99.90
5675;DHT22;2860;54.284;10.158;2022-12-18T11:38:32;-4.90;99.90
5675;DHT22;2860;54.284;10.158;2022-12-18T11:41:00;-4.90;99.90
5675;DHT22;2860;54.284;10.158;2022-12-18T11:46:12;-4.80;99.90
5675;DHT22;2860;54.284;10.158;2022-12-18T11:48:49;-4.80;99.90
5675;DHT22;2860;54.284;10.158;2022-12-18T11:51:24;-4.80;99.90
5675;DHT22;2860;54.284;10.158;2022-12-18T11:53:51;-4.70;99.90
5675;DHT22;2860;54.284;10.158;2022-12-18T11:56:29;-4.60;99.90
5675;DHT22;2860;54.284;10.158;2022-12-18T12:01:51;-4.40;99.90
5675;DHT22;2860;54.284;10.158;2022-12-18T12:04:48;-4.40;99.90
5675;DHT22;2860;54.284;10.158;2022-12-18T12:07:26;-4.30;99.90
5675;DHT22;2860;54.284;10.158;2022-12-18T12:18:44;-4.00;99.90
5675;DHT22;2860;54.284;10.158;2022-12-18T12:21:24;-3.90;99.90
5675;DHT22;2860;54.284;10.158;2022-12-18T12:26:45;-3.90;99.90
5675;DHT22;2860;54.284;10.158;2022-12-18T12:35:00;-4.00;99.90
5675;DHT22;2860;54.284;10.158;2022-12-18T12:37:49;-4.10;99.90
5675;DHT22;2860;54.284;10.158;2022-12-18T12:40:24;-4.10;99.90
5675;DHT22;2860;54.284;10.158;2022-12-18T12:42:55;-4.20;99.90
5675;DHT22;2860;54.284;10.158;2022-12-18T12:45:51;-4.20;99.90
5675;DHT22;2860;54.284;10.158;2022-12-18T12:48:43;-4.20;99.90
5675;DHT22;2860;54.284;10.158;2022-12-18T12:51:18;-4.10;99.90
5675;DHT22;2860;54.284;10.158;2022-12-18T12:53:45;-4.10;99.90
5675;DHT22;2860;54.284;10.158;2022-12-18T12:56:13;-4.10;99.90
5675;DHT22;2860;54.284;10.158;2022-12-18T13:04:21;-4.10;99.90
5675;DHT22;2860;54.284;10.158;2022-12-18T13:07:16;-4.20;99.90
5675;DHT22;2860;54.284;10.158;2022-12-18T13:13:08;-4.10;99.90
5675;DHT22;2860;54.284;10.158;2022-12-18T13:15:45;-4.00;99.90
5675;DHT22;2860;54.284;10.158;2022-12-18T13:18:32;-3.90;99.90
5675;DHT22;2860;54.284;10.158;2022-12-18T13:31:00;-4.00;99.90
5675;DHT22;2860;54.284;10.158;2022-12-18T13:36:04;-4.10;99.90
5675;DHT22;2860;54.284;10.158;2022-12-18T13:38:36;-4.20;99.90
5675;DHT22;2860;54.284;10.158;2022-12-18T13:41:23;-4.30;99.90
5675;DHT22;2860;54.284;10.158;2022-12-18T13:43:53;-4.50;99.90
5675;DHT22;2860;54.284;10.158;2022-12-18T13:46:46;-4.60;99.90
5675;DHT22;2860;54.284;10.158;2022-12-18T13:51:40;-4.80;99.90
5675;DHT22;2860;54.284;10.158;2022-12-18T13:54:27;-4.90;99.90
5675;DHT22;2860;54.284;10.158;2022-12-18T13:56:54;-5.10;99.90
5675;DHT22;2860;54.284;10.158;2022-12-18T13:59:21;-5.20;99.90
5675;DHT22;2860;54.284;10.158;2022-12-18T14:01:59;-5.20;99.90
5675;DHT22;2860;54.284;10.158;2022-12-18T14:04:32;-5.30;99.90
5675;DHT22;2860;54.284;10.158;2022-12-18T14:07:03;-5.40;99.90
5675;DHT22;2860;54.284;10.158;2022-12-18T14:09:34;-5.50;99.90
5675;DHT22;2860;54.284;10.158;2022-12-18T14:12:01;-5.60;99.90
5675;DHT22;2860;54.284;10.158;2022-12-18T14:14:48;-5.70;99.90
5675;DHT22;2860;54.284;10.158;2022-12-18T14:17:15;-5.80;99.90
5675;DHT22;2860;54.284;10.158;2022-12-18T14:19:45;-5.80;99.90
5675;DHT22;2860;54.284;10.158;2022-12-18T14:22:17;-5.90;99.90
5675;DHT22;2860;54.284;10.158;2022-12-18T14:24:44;-6.00;99.90
5675;DHT22;2860;54.284;10.158;2022-12-18T14:27:21;-6.10;99.90
5675;DHT22;2860;54.284;10.158;2022-12-18T14:29:47;-6.10;99.90
5675;DHT22;2860;54.284;10.158;2022-12-18T14:32:15;-6.20;99.90
5675;DHT22;2860;54.284;10.158;2022-12-18T14:34:47;-6.20;99.90
5675;DHT22;2860;54.284;10.158;2022-12-18T14:37:15;-6.30;99.90
5675;DHT22;2860;54.284;10.158;2022-12-18T14:39:52;-6.30;99.90
5675;DHT22;2860;54.284;10.158;2022-12-18T14:42:18;-6.30;99.90
5675;DHT22;2860;54.284;10.158;2022-12-18T14:44:43;-6.30;99.90
5675;DHT22;2860;54.284;10.158;2022-12-18T14:47:15;-6.30;99.90
5675;DHT22;2860;54.284;10.158;2022-12-18T14:49:41;-6.30;99.90
5675;DHT22;2860;54.284;10.158;2022-12-18T14:52:25;-6.30;99.90
5675;DHT22;2860;54.284;10.158;2022-12-18T14:54:51;-6.30;99.90
5675;DHT22;2860;54.284;10.158;2022-12-18T14:57:25;-6.30;99.90
5675;DHT22;2860;54.284;10.158;2022-12-18T14:59:51;-6.30;99.90
5675;DHT22;2860;54.284;10.158;2022-12-18T15:02:26;-6.30;99.90
5675;DHT22;2860;54.284;10.158;2022-12-18T15:05:00;-6.30;99.90
5675;DHT22;2860;54.284;10.158;2022-12-18T15:07:26;-6.30;99.90
5675;DHT22;2860;54.284;10.158;2022-12-18T15:12:45;-6.40;99.90
5675;DHT22;2860;54.284;10.158;2022-12-18T15:20:48;-6.50;99.90
5675;DHT22;2860;54.284;10.158;2022-12-18T15:23:33;-6.50;99.90
5675;DHT22;2860;54.284;10.158;2022-12-18T15:26:07;-6.50;99.90
5675;DHT22;2860;54.284;10.158;2022-12-18T15:28:53;-6.50;99.90
5675;DHT22;2860;54.284;10.158;2022-12-18T15:31:24;-6.50;99.90
5675;DHT22;2860;54.284;10.158;2022-12-18T15:36:20;-6.50;99.90
5675;DHT22;2860;54.284;10.158;2022-12-18T15:38:48;-6.50;99.90
5675;DHT22;2860;54.284;10.158;2022-12-18T15:41:15;-6.60;99.90
5675;DHT22;2860;54.284;10.158;2022-12-18T15:43:41;-6.60;99.90
5675;DHT22;2860;54.284;10.158;2022-12-18T15:46:14;-6.60;99.90
5675;DHT22;2860;54.284;10.158;2022-12-18T15:48:44;-6.60;99.90
5675;DHT22;2860;54.284;10.158;2022-12-18T15:51:18;-6.60;99.90
5675;DHT22;2860;54.284;10.158;2022-12-18T15:53:46;-6.70;99.90
5675;DHT22;2860;54.284;10.158;2022-12-18T15:56:14;-6.60;99.90
5675;DHT22;2860;54.284;10.158;2022-12-18T15:58:59;-6.60;99.90
5675;DHT22;2860;54.284;10.158;2022-12-18T16:01:28;-6.50;99.90
5675;DHT22;2860;54.284;10.158;2022-12-18T16:03:54;-6.50;99.90
5675;DHT22;2860;54.284;10.158;2022-12-18T16:06:21;-6.50;99.90
5675;DHT22;2860;54.284;10.158;2022-12-18T16:08:46;-6.50;99.90
5675;DHT22;2860;54.284;10.158;2022-12-18T16:11:23;-6.50;99.90
5675;DHT22;2860;54.284;10.158;2022-12-18T16:14:05;-6.50;99.90
5675;DHT22;2860;54.284;10.158;2022-12-18T16:16:31;-6.50;99.90
5675;DHT22;2860;54.284;10.158;2022-12-18T16:18:56;-6.50;99.90
5675;DHT22;2860;54.284;10.158;2022-12-18T16:21:22;-6.50;99.90
5675;DHT22;2860;54.284;10.158;2022-12-18T16:23:47;-6.50;99.90
5675;DHT22;2860;54.284;10.158;2022-12-18T16:26:13;-6.40;99.90
5675;DHT22;2860;54.284;10.158;2022-12-18T16:28:38;-6.40;99.90
5675;DHT22;2860;54.284;10.158;2022-12-18T16:31:04;-6.40;99.90
5675;DHT22;2860;54.284;10.158;2022-12-18T16:33:30;-6.40;99.90
5675;DHT22;2860;54.284;10.158;2022-12-18T16:35:55;-6.40;99.90
5675;DHT22;2860;54.284;10.158;2022-12-18T16:38:21;-6.40;99.90
5675;DHT22;2860;54.284;10.158;2022-12-18T16:40:46;-6.30;99.90
5675;DHT22;2860;54.284;10.158;2022-12-18T16:43:30;-6.30;99.90
5675;DHT22;2860;54.284;10.158;2022-12-18T16:45:58;-6.30;99.90
5675;DHT22;2860;54.284;10.158;2022-12-18T16:48:24;-6.20;99.90
5675;DHT22;2860;54.284;10.158;2022-12-18T16:50:49;-6.20;99.90
5675;DHT22;2860;54.284;10.158;2022-12-18T16:53:15;-6.10;99.90
5675;DHT22;2860;54.284;10.158;2022-12-18T16:55:40;-6.10;99.90
5675;DHT22;2860;54.284;10.158;2022-12-18T16:58:06;-6.00;99.90
5675;DHT22;2860;54.284;10.158;2022-12-18T17:00:31;-6.00;99.90
5675;DHT22;2860;54.284;10.158;2022-12-18T17:02:57;-6.00;99.90
5675;DHT22;2860;54.284;10.158;2022-12-18T17:05:22;-6.00;99.90
5675;DHT22;2860;54.284;10.158;2022-12-18T17:07:48;-6.00;99.90
5675;DHT22;2860;54.284;10.158;2022-12-18T17:10:13;-6.00;99.90
5675;DHT22;2860;54.284;10.158;2022-12-18T17:12:39;-5.90;99.90
5675;DHT22;2860;54.284;10.158;2022-12-18T17:15:05;-6.00;99.90
5675;DHT22;2860;54.284;10.158;2022-12-18T17:17:30;-6.00;99.90
5675;DHT22;2860;54.284;10.158;2022-12-18T17:19:56;-6.00;99.90
5675;DHT22;2860;54.284;10.158;2022-12-18T17:22:21;-6.00;99.90
5675;DHT22;2860;54.284;10.158;2022-12-18T17:24:50;-6.10;99.90
5675;DHT22;2860;54.284;10.158;2022-12-18T17:27:15;-6.00;99.90
5675;DHT22;2860;54.284;10.158;2022-12-18T17:29:41;-6.00;99.90